Time;durP1;ratioP1;P1;durP2;ratioP2;P2;SDS_P1;SDS_P2;PMS_P1;PMS_P2;Temp;Humidity;BMP_temperature;BMP_pressure;BME280_temperature;BME280_humidity;BME280_pressure;Samples;Min_cycle;Max_cycle;Signal;HPM_P1;HPM_P2
2022/07/22 00:00:44;;;;;;;62.23;6.20;;;;;;;;;;5092475;28;20485;-70
2022/07/22 00:03:13;;;;;;;66.00;6.50;;;;;;;;;;5092046;28;20446;-70
2022/07/22 00:05:40;;;;;;;63.70;6.83;;;;;;;;;;5092189;28;20800;-70
2022/07/22 00:08:07;;;;;;;62.20;6.27;;;;;;;;;;5092341;28;20453;-70
2022/07/22 00:10:34;;;;;;;62.60;7.13;;;;;;;;;;5092023;28;20482;-70
2022/07/22 00:13:02;;;;;;;68.03;6.57;;;;;;;;;;5091713;28;20447;-70
2022/07/22 00:15:29;;;;;;;62.70;7.00;;;;;;;;;;5091448;28;20545;-70
2022/07/22 00:17:56;;;;;;;66.70;7.20;;;;;;;;;;5091672;28;20446;-70
2022/07/22 00:20:25;;;;;;;63.30;7.03;;;;;;;;;;5091963;28;20465;-70
2022/07/22 00:22:52;;;;;;;65.33;7.27;;;;;;;;;;5091184;28;20447;-70
2022/07/22 00:25:19;;;;;;;62.80;7.00;;;;;;;;;;5091592;28;20531;-70
2022/07/22 00:27:46;;;;;;;63.77;6.83;;;;;;;;;;5092436;28;20537;-70
2022/07/22 00:30:14;;;;;;;63.80;8.17;;;;;;;;;;5090873;28;20492;-70
2022/07/22 00:32:41;;;;;;;63.27;6.90;;;;;;;;;;5091708;28;20930;-70
2022/07/22 00:35:08;;;;;;;62.60;6.30;;;;;;;;;;5091603;28;20682;-70
2022/07/22 00:37:37;;;;;;;62.70;6.70;;;;;;;;;;5092134;28;20457;-70
2022/07/22 00:40:04;;;;;;;62.77;6.57;;;;;;;;;;5091518;28;20466;-70
2022/07/22 00:42:32;;;;;;;63.20;6.57;;;;;;;;;;5091842;28;20450;-70
2022/07/22 00:44:59;;;;;;;62.70;6.13;;;;;;;;;;5090375;28;20457;-70
2022/07/22 00:47:26;;;;;;;66.30;7.20;;;;;;;;;;5091582;28;20449;-70
2022/07/22 00:49:53;;;;;;;64.30;7.23;;;;;;;;;;5091368;28;20513;-70
2022/07/22 00:52:20;;;;;;;63.67;6.07;;;;;;;;;;5091815;28;20458;-70
2022/07/22 00:54:49;;;;;;;63.50;6.83;;;;;;;;;;5089950;28;20489;-70
2022/07/22 00:57:16;;;;;;;69.63;7.73;;;;;;;;;;5091680;28;20530;-70
2022/07/22 00:59:44;;;;;;;62.47;6.43;;;;;;;;;;5091245;28;20805;-70
2022/07/22 01:02:11;;;;;;;64.10;6.73;;;;;;;;;;5091405;28;20484;-70
2022/07/22 01:04:38;;;;;;;62.43;6.40;;;;;;;;;;5091125;28;20450;-70
2022/07/22 01:07:05;;;;;;;62.57;7.00;;;;;;;;;;5091335;28;20525;-70
2022/07/22 01:09:32;;;;;;;63.20;6.90;;;;;;;;;;5090918;28;20485;-70
2022/07/22 01:12:01;;;;;;;62.87;6.90;;;;;;;;;;5091833;28;20797;-70
2022/07/22 01:14:28;;;;;;;62.67;6.70;;;;;;;;;;5091370;28;20455;-70
2022/07/22 01:16:56;;;;;;;62.97;6.60;;;;;;;;;;5091087;28;20453;-70
2022/07/22 01:19:23;;;;;;;70.63;7.13;;;;;;;;;;5081846;28;20465;-70
2022/07/22 01:21:51;;;;;;;61.97;6.10;;;;;;;;;;5071248;28;20452;-70
2022/07/22 01:24:18;;;;;;;61.90;6.27;;;;;;;;;;5071294;28;20979;-70
2022/07/22 01:26:46;;;;;;;62.80;6.10;;;;;;;;;;5084429;28;20943;-70
2022/07/22 01:29:13;;;;;;;62.33;6.00;;;;;;;;;;5090458;28;20492;-70
2022/07/22 01:31:40;;;;;;;66.80;6.40;;;;;;;;;;5090835;28;20446;-70
2022/07/22 01:34:07;;;;;;;64.57;6.97;;;;;;;;;;5091384;28;20542;-70
2022/07/22 01:36:34;;;;;;;62.87;6.70;;;;;;;;;;5091059;28;20495;-70
2022/07/22 01:39:03;;;;;;;63.33;7.13;;;;;;;;;;5090898;28;20446;-68
2022/07/22 01:41:30;;;;;;;62.17;6.17;;;;;;;;;;5091093;28;20456;-68
2022/07/22 01:43:57;;;;;;;61.87;6.33;;;;;;;;;;5091097;28;20461;-68
2022/07/22 01:46:24;;;;;;;61.80;5.80;;;;;;;;;;5090068;28;20534;-68
2022/07/22 01:48:51;;;;;;;65.07;6.03;;;;;;;;;;5093712;28;20508;-68
2022/07/22 01:51:18;;;;;;;63.03;6.93;;;;;;;;;;5094718;28;20844;-68
2022/07/22 01:53:46;;;;;;;65.30;7.77;;;;;;;;;;5095052;28;20525;-67
2022/07/22 01:56:14;;;;;;;62.20;6.03;;;;;;;;;;5095480;28;20442;-67
2022/07/22 01:58:41;;;;;;;66.37;6.10;;;;;;;;;;5092389;28;20465;-68
2022/07/22 02:01:09;;;;;;;63.77;7.03;;;;;;;;;;5094504;28;20462;-68
2022/07/22 02:03:36;;;;;;;63.60;6.30;;;;;;;;;;5095132;28;20532;-68
2022/07/22 02:06:03;;;;;;;62.80;6.73;;;;;;;;;;5094275;28;20468;-68
2022/07/22 02:08:30;;;;;;;61.33;5.60;;;;;;;;;;5094368;28;20476;-68
2022/07/22 02:10:57;;;;;;;63.50;7.13;;;;;;;;;;5093909;28;20494;-68
2022/07/22 02:13:26;;;;;;;64.47;7.60;;;;;;;;;;5094542;28;20446;-68
2022/07/22 02:15:53;;;;;;;66.07;7.47;;;;;;;;;;5094350;28;20442;-68
2022/07/22 02:18:20;;;;;;;63.77;7.57;;;;;;;;;;5094635;28;20446;-68
2022/07/22 02:20:48;;;;;;;65.87;7.60;;;;;;;;;;5093933;28;20497;-68
2022/07/22 02:23:15;;;;;;;63.77;6.93;;;;;;;;;;5094207;28;20449;-68
2022/07/22 02:25:42;;;;;;;63.17;6.97;;;;;;;;;;5093527;28;20940;-68
2022/07/22 02:28:10;;;;;;;63.87;6.63;;;;;;;;;;5094273;28;20826;-68
2022/07/22 02:30:38;;;;;;;62.20;6.03;;;;;;;;;;5092156;28;20573;-68
2022/07/22 02:33:06;;;;;;;63.27;6.57;;;;;;;;;;5093410;28;20445;-68
2022/07/22 02:35:33;;;;;;;63.87;7.23;;;;;;;;;;5094135;28;20448;-68
2022/07/22 02:38:00;;;;;;;62.70;6.27;;;;;;;;;;5094070;28;20453;-68
2022/07/22 02:40:27;;;;;;;62.60;6.70;;;;;;;;;;5093651;28;20560;-68
2022/07/22 02:42:54;;;;;;;63.47;6.67;;;;;;;;;;5094424;28;20449;-68
2022/07/22 02:45:22;;;;;;;62.47;6.43;;;;;;;;;;5093978;28;20537;-68
2022/07/22 02:47:51;;;;;;;64.50;6.60;;;;;;;;;;5093415;28;20478;-68
2022/07/22 02:50:18;;;;;;;62.53;6.37;;;;;;;;;;5093321;28;20504;-68
2022/07/22 02:52:45;;;;;;;62.90;7.20;;;;;;;;;;5094068;28;20457;-68
2022/07/22 02:55:13;;;;;;;63.57;7.30;;;;;;;;;;5093958;28;20457;-68
2022/07/22 02:57:40;;;;;;;62.77;6.23;;;;;;;;;;5093777;28;20446;-68
2022/07/22 03:00:08;;;;;;;62.47;6.23;;;;;;;;;;5092726;28;20467;-68
2022/07/22 03:02:35;;;;;;;62.80;6.60;;;;;;;;;;5093351;28;20813;-68
2022/07/22 03:05:04;;;;;;;62.03;6.20;;;;;;;;;;5090593;28;20450;-68
2022/07/22 03:07:31;;;;;;;61.83;6.67;;;;;;;;;;5093164;28;20451;-68
2022/07/22 03:09:58;;;;;;;62.80;6.57;;;;;;;;;;5092961;28;20486;-68
2022/07/22 03:12:26;;;;;;;61.80;6.30;;;;;;;;;;5093555;28;20446;-68
2022/07/22 03:14:53;;;;;;;64.23;6.90;;;;;;;;;;5093244;28;20823;-68
2022/07/22 03:17:20;;;;;;;63.00;6.90;;;;;;;;;;5092819;28;20446;-68
2022/07/22 03:19:47;;;;;;;63.53;7.17;;;;;;;;;;5092694;28;20472;-68
2022/07/22 03:22:15;;;;;;;62.57;6.70;;;;;;;;;;5093263;28;20847;-68
2022/07/22 03:24:43;;;;;;;65.60;7.20;;;;;;;;;;5092679;28;20450;-68
2022/07/22 03:27:10;;;;;;;64.70;6.83;;;;;;;;;;5092464;28;20450;-68
2022/07/22 03:29:37;;;;;;;63.20;7.33;;;;;;;;;;5092907;28;20482;-69
2022/07/22 03:32:04;;;;;;;63.27;8.07;;;;;;;;;;5092799;28;20559;-68
2022/07/22 03:34:31;;;;;;;62.50;6.20;;;;;;;;;;5092782;28;20442;-68
2022/07/22 03:36:59;;;;;;;63.30;7.00;;;;;;;;;;5091276;28;20461;-68
2022/07/22 03:39:27;;;;;;;64.07;6.37;;;;;;;;;;5093140;28;20466;-68
2022/07/22 03:41:54;;;;;;;63.53;6.63;;;;;;;;;;5092761;28;20986;-68
2022/07/22 03:44:21;;;;;;;62.87;6.60;;;;;;;;;;5093211;28;20446;-68
2022/07/22 03:46:48;;;;;;;62.10;5.90;;;;;;;;;;5092430;28;20446;-68
2022/07/22 03:49:16;;;;;;;63.47;6.90;;;;;;;;;;5092730;28;20542;-68
2022/07/22 03:51:43;;;;;;;62.53;6.20;;;;;;;;;;5092475;28;20492;-68
2022/07/22 03:54:10;;;;;;;65.40;7.73;;;;;;;;;;5093325;28;20438;-68
2022/07/22 03:56:39;;;;;;;63.17;7.10;;;;;;;;;;5092198;28;20456;-68
2022/07/22 03:59:06;;;;;;;63.67;6.13;;;;;;;;;;5092138;28;20671;-68
2022/07/22 04:01:33;;;;;;;63.17;6.57;;;;;;;;;;5092306;28;20443;-68
2022/07/22 04:04:00;;;;;;;63.07;6.80;;;;;;;;;;5092828;28;20446;-68
2022/07/22 04:06:27;;;;;;;64.23;6.63;;;;;;;;;;5092439;28;20951;-68
2022/07/22 04:08:54;;;;;;;62.67;6.40;;;;;;;;;;5089199;28;20449;-68
2022/07/22 04:11:21;;;;;;;65.90;7.77;;;;;;;;;;5091111;28;20893;-68
2022/07/22 04:13:50;;;;;;;62.40;6.70;;;;;;;;;;5091964;28;20451;-68
2022/07/22 04:16:17;;;;;;;65.60;7.30;;;;;;;;;;5091934;28;20446;-68
2022/07/22 04:18:44;;;;;;;64.37;6.70;;;;;;;;;;5092061;28;20451;-68
2022/07/22 04:21:12;;;;;;;65.17;6.07;;;;;;;;;;5092192;28;20834;-68
2022/07/22 04:23:39;;;;;;;62.47;6.57;;;;;;;;;;5092282;28;20456;-68
2022/07/22 04:26:06;;;;;;;62.10;6.37;;;;;;;;;;5092208;28;20453;-68
2022/07/22 04:28:34;;;;;;;63.37;6.77;;;;;;;;;;5091437;28;20819;-68
2022/07/22 04:31:02;;;;;;;63.30;7.50;;;;;;;;;;5091898;28;20505;-68
2022/07/22 04:33:29;;;;;;;62.30;6.90;;;;;;;;;;5091930;28;20458;-68
2022/07/22 04:35:57;;;;;;;69.63;7.30;;;;;;;;;;5091857;28;20463;-68
2022/07/22 04:38:24;;;;;;;62.27;6.90;;;;;;;;;;5091208;28;20859;-68
2022/07/22 04:40:51;;;;;;;63.40;7.03;;;;;;;;;;5089192;28;20459;-68
2022/07/22 04:43:18;;;;;;;62.60;7.10;;;;;;;;;;5092336;28;20449;-68
2022/07/22 04:45:45;;;;;;;64.00;7.37;;;;;;;;;;5091690;28;20456;-68
2022/07/22 04:48:14;;;;;;;63.73;6.70;;;;;;;;;;5091509;28;20457;-68
2022/07/22 04:50:41;;;;;;;61.20;5.90;;;;;;;;;;5091624;28;20489;-68
2022/07/22 04:53:08;;;;;;;64.30;7.43;;;;;;;;;;5091327;28;20448;-68
2022/07/22 04:55:35;;;;;;;63.70;7.63;;;;;;;;;;5091809;28;20449;-68
2022/07/22 04:58:02;;;;;;;66.13;7.33;;;;;;;;;;5091549;28;20454;-68
2022/07/22 05:00:29;;;;;;;62.87;7.10;;;;;;;;;;5091295;28;20546;-68
2022/07/22 05:02:56;;;;;;;63.07;5.87;;;;;;;;;;5091648;28;20450;-68
2022/07/22 05:05:25;;;;;;;63.70;7.67;;;;;;;;;;5091709;28;20446;-68
2022/07/22 05:07:52;;;;;;;61.83;6.07;;;;;;;;;;5091213;28;20867;-68
2022/07/22 05:10:19;;;;;;;66.43;8.63;;;;;;;;;;5090683;28;20490;-68
2022/07/22 05:12:47;;;;;;;62.77;7.20;;;;;;;;;;5089353;28;20451;-68
2022/07/22 05:15:14;;;;;;;63.00;6.67;;;;;;;;;;5091778;28;20522;-68
2022/07/22 05:17:41;;;;;;;63.87;7.37;;;;;;;;;;5091546;28;20453;-68
2022/07/22 05:20:08;;;;;;;62.07;6.63;;;;;;;;;;5091808;28;20461;-68
2022/07/22 05:22:37;;;;;;;63.87;6.57;;;;;;;;;;5093921;28;20448;-68
2022/07/22 05:25:04;;;;;;;62.70;7.10;;;;;;;;;;5095828;28;20446;-68
2022/07/22 05:27:31;;;;;;;63.63;6.80;;;;;;;;;;5095198;28;20822;-68
2022/07/22 05:29:58;;;;;;;62.17;6.20;;;;;;;;;;5094179;28;20474;-68
2022/07/22 05:32:26;;;;;;;63.60;7.23;;;;;;;;;;5094492;28;20450;-68
2022/07/22 05:34:53;;;;;;;61.97;6.50;;;;;;;;;;5094987;28;20517;-68
2022/07/22 05:37:20;;;;;;;62.67;6.30;;;;;;;;;;5094865;28;20500;-68
2022/07/22 05:39:48;;;;;;;66.90;7.17;;;;;;;;;;5094853;28;20502;-68
2022/07/22 05:42:16;;;;;;;62.77;6.87;;;;;;;;;;5095342;28;20450;-68
2022/07/22 05:44:43;;;;;;;62.63;7.40;;;;;;;;;;5092808;28;20451;-68
2022/07/22 05:47:10;;;;;;;62.80;6.83;;;;;;;;;;5094980;28;20534;-68
2022/07/22 05:49:39;;;;;;;64.50;7.23;;;;;;;;;;5093747;28;20906;-68
2022/07/22 05:52:06;;;;;;;63.73;7.27;;;;;;;;;;5095128;28;20482;-68
2022/07/22 05:54:34;;;;;;;62.00;6.60;;;;;;;;;;5095001;28;20541;-68
2022/07/22 05:57:02;;;;;;;62.67;7.23;;;;;;;;;;5095463;28;20473;-68
2022/07/22 05:59:29;;;;;;;62.40;6.60;;;;;;;;;;5094488;28;20474;-68
2022/07/22 06:01:56;;;;;;;65.50;6.30;;;;;;;;;;5094227;28;20813;-68
2022/07/22 06:04:23;;;;;;;67.70;8.23;;;;;;;;;;5095193;28;20453;-68
2022/07/22 06:06:50;;;;;;;62.47;7.53;;;;;;;;;;5095118;28;20450;-68
2022/07/22 06:09:18;;;;;;;62.73;7.00;;;;;;;;;;5093870;28;20982;-68
2022/07/22 06:11:45;;;;;;;64.87;7.90;;;;;;;;;;5094510;28;20488;-68
2022/07/22 06:14:13;;;;;;;65.20;7.23;;;;;;;;;;5093903;28;20809;-68
2022/07/22 06:16:40;;;;;;;63.57;7.50;;;;;;;;;;5091723;28;20451;-68
2022/07/22 06:19:07;;;;;;;66.63;8.30;;;;;;;;;;5093740;28;20967;-68
2022/07/22 06:21:36;;;;;;;65.33;7.77;;;;;;;;;;5094421;28;20446;-68
2022/07/22 06:24:03;;;;;;;63.00;7.43;;;;;;;;;;5094303;28;20438;-68
2022/07/22 06:26:30;;;;;;;69.73;8.47;;;;;;;;;;5094154;28;20465;-68
2022/07/22 06:28:57;;;;;;;65.57;8.47;;;;;;;;;;5093697;28;20537;-68
2022/07/22 06:31:25;;;;;;;63.60;7.47;;;;;;;;;;5093710;28;20489;-68
2022/07/22 06:33:52;;;;;;;66.57;7.40;;;;;;;;;;5093233;28;20948;-69
2022/07/22 06:36:20;;;;;;;63.17;7.13;;;;;;;;;;5093973;28;20443;-68
2022/07/22 06:38:47;;;;;;;65.47;8.87;;;;;;;;;;5093888;28;20449;-68
2022/07/22 06:41:18;;;;;;;65.10;8.10;;;;;;;;;;5094201;28;20462;-68
2022/07/22 06:43:45;;;;;;;65.87;8.27;;;;;;;;;;5093895;28;20447;-68
2022/07/22 06:46:12;;;;;;;64.80;7.87;;;;;;;;;;5094306;28;20446;-68
2022/07/22 06:48:41;;;;;;;66.73;8.80;;;;;;;;;;5091640;28;20454;-68
2022/07/22 06:51:08;;;;;;;66.97;8.50;;;;;;;;;;5093754;28;20482;-68
2022/07/22 06:53:35;;;;;;;67.87;8.73;;;;;;;;;;5094202;28;20446;-68
2022/07/22 06:56:02;;;;;;;63.80;6.70;;;;;;;;;;5093763;28;20438;-68
2022/07/22 06:58:29;;;;;;;64.17;8.03;;;;;;;;;;5093866;28;20838;-68
2022/07/22 07:00:56;;;;;;;63.50;7.40;;;;;;;;;;5093802;28;20462;-68
2022/07/22 07:03:25;;;;;;;61.63;6.60;;;;;;;;;;5093666;28;20448;-68
2022/07/22 07:05:53;;;;;;;63.67;6.73;;;;;;;;;;5093603;28;20446;-68
2022/07/22 07:08:21;;;;;;;63.77;6.70;;;;;;;;;;5093956;28;20542;-68
2022/07/22 07:10:48;;;;;;;64.03;7.70;;;;;;;;;;5092492;28;20506;-68
2022/07/22 07:13:15;;;;;;;63.50;7.50;;;;;;;;;;5093874;28;20452;-69
2022/07/22 07:15:42;;;;;;;64.57;7.07;;;;;;;;;;5093264;28;20975;-69
2022/07/22 07:18:10;;;;;;;64.97;7.40;;;;;;;;;;5093337;28;20439;-69
2022/07/22 07:20:37;;;;;;;63.63;7.30;;;;;;;;;;5091069;28;20466;-69
2022/07/22 07:23:05;;;;;;;63.37;7.50;;;;;;;;;;5093466;28;20515;-69
2022/07/22 07:25:33;;;;;;;62.53;6.43;;;;;;;;;;5093349;28;20486;-69
2022/07/22 07:28:00;;;;;;;63.60;7.50;;;;;;;;;;5093492;28;20492;-69
2022/07/22 07:30:28;;;;;;;62.17;6.47;;;;;;;;;;5092375;28;20468;-69
2022/07/22 07:32:55;;;;;;;63.53;7.20;;;;;;;;;;5093401;28;20447;-69
2022/07/22 07:35:22;;;;;;;63.50;7.60;;;;;;;;;;5092850;28;20450;-69
2022/07/22 07:37:49;;;;;;;64.50;7.60;;;;;;;;;;5092863;28;20949;-68
2022/07/22 07:40:18;;;;;;;63.80;7.83;;;;;;;;;;5092697;28;20467;-69
2022/07/22 07:42:45;;;;;;;63.70;7.57;;;;;;;;;;5092693;28;20481;-70
2022/07/22 07:45:12;;;;;;;63.87;8.50;;;;;;;;;;5093037;28;20460;-69
2022/07/22 07:47:39;;;;;;;63.03;7.70;;;;;;;;;;5092978;28;20452;-69
2022/07/22 07:50:07;;;;;;;66.53;8.53;;;;;;;;;;5091864;28;20470;-69
2022/07/22 07:52:38;;;;;;;64.67;8.03;;;;;;;;;;5090375;28;21037;-69
2022/07/22 07:55:06;;;;;;;63.17;7.30;;;;;;;;;;5092883;28;20460;-69
2022/07/22 07:57:35;;;;;;;63.03;6.93;;;;;;;;;;5092697;28;20882;-69
2022/07/22 08:00:02;;;;;;;65.57;7.13;;;;;;;;;;5092306;28;20466;-69
2022/07/22 08:02:29;;;;;;;64.27;7.50;;;;;;;;;;5092529;28;20823;-69
2022/07/22 08:04:57;;;;;;;64.83;7.73;;;;;;;;;;5092288;28;20448;-69
2022/07/22 08:07:24;;;;;;;62.60;6.50;;;;;;;;;;5092720;28;20458;-69
2022/07/22 08:09:51;;;;;;;62.93;7.70;;;;;;;;;;5092416;28;20467;-69
2022/07/22 08:12:18;;;;;;;62.53;7.60;;;;;;;;;;5092419;28;20481;-69
2022/07/22 08:14:46;;;;;;;65.90;7.70;;;;;;;;;;5092586;28;20555;-69
2022/07/22 08:17:14;;;;;;;63.90;8.30;;;;;;;;;;5092443;28;20489;-69
2022/07/22 08:19:41;;;;;;;62.80;7.20;;;;;;;;;;5091991;28;20876;-69
2022/07/22 08:22:08;;;;;;;66.27;7.60;;;;;;;;;;5092458;28;20451;-69
2022/07/22 08:24:35;;;;;;;62.87;6.03;;;;;;;;;;5092671;28;20452;-69
2022/07/22 08:27:03;;;;;;;65.50;8.37;;;;;;;;;;5091129;28;20992;-69
2022/07/22 08:29:30;;;;;;;64.33;7.50;;;;;;;;;;5091087;28;20468;-69
2022/07/22 08:31:58;;;;;;;63.20;7.20;;;;;;;;;;5091656;28;20485;-69
2022/07/22 08:34:25;;;;;;;63.27;7.17;;;;;;;;;;5092440;28;20454;-69
2022/07/22 08:36:52;;;;;;;63.47;7.10;;;;;;;;;;5092155;28;20830;-69
2022/07/22 08:39:20;;;;;;;64.20;7.63;;;;;;;;;;5092609;28;20473;-69
2022/07/22 08:41:47;;;;;;;63.00;7.50;;;;;;;;;;5092293;28;20439;-69
2022/07/22 08:44:14;;;;;;;62.77;6.63;;;;;;;;;;5092414;28;20817;-69
2022/07/22 08:46:41;;;;;;;61.93;6.80;;;;;;;;;;5092554;28;20928;-69
2022/07/22 08:49:10;;;;;;;61.70;6.30;;;;;;;;;;5092164;28;20476;-69
2022/07/22 08:51:37;;;;;;;66.63;8.93;;;;;;;;;;5091491;28;20522;-68
2022/07/22 08:54:04;;;;;;;64.30;8.20;;;;;;;;;;5092394;28;20446;-69
2022/07/22 08:56:31;;;;;;;62.47;7.40;;;;;;;;;;5091313;28;20807;-69
2022/07/22 08:58:58;;;;;;;61.63;6.40;;;;;;;;;;5089459;28;20455;-69
2022/07/22 09:01:25;;;;;;;63.60;7.23;;;;;;;;;;5091492;28;20928;-69
2022/07/22 09:03:55;;;;;;;62.60;7.27;;;;;;;;;;5091386;28;20450;-69
2022/07/22 09:06:24;;;;;;;65.20;7.17;;;;;;;;;;5091901;28;20489;-69
2022/07/22 09:08:52;;;;;;;61.77;6.90;;;;;;;;;;5091575;28;20786;-69
2022/07/22 09:11:20;;;;;;;63.10;5.83;;;;;;;;;;5091005;28;20468;-69
2022/07/22 09:13:47;;;;;;;63.67;6.60;;;;;;;;;;5091353;28;20534;-69
2022/07/22 09:16:15;;;;;;;64.67;7.03;;;;;;;;;;5091921;28;20446;-69
2022/07/22 09:18:49;;;;;;;61.83;6.60;;;;;;;;;;5091129;28;20446;-69
2022/07/22 09:21:16;;;;;;;62.83;5.97;;;;;;;;;;5091359;28;20521;-69
2022/07/22 09:23:45;;;;;;;65.87;6.80;;;;;;;;;;5091770;28;20455;-69
2022/07/22 09:26:31;;;;;;;64.47;7.00;;;;;;;;;;5091776;28;20453;-69
2022/07/22 09:28:58;;;;;;;67.10;6.83;;;;;;;;;;5091395;28;20460;-69
2022/07/22 09:31:27;;;;;;;61.27;6.33;;;;;;;;;;5088906;28;20523;-69
2022/07/22 09:33:54;;;;;;;63.90;6.17;;;;;;;;;;5091156;28;20449;-68
2022/07/22 09:36:22;;;;;;;67.90;7.63;;;;;;;;;;5091210;28;20438;-69
2022/07/22 09:38:50;;;;;;;61.77;6.30;;;;;;;;;;5090989;28;20461;-69
2022/07/22 09:41:18;;;;;;;60.70;6.10;;;;;;;;;;5091221;28;20469;-69
2022/07/22 09:43:45;;;;;;;64.53;6.00;;;;;;;;;;5091533;28;21023;-69
2022/07/22 09:46:12;;;;;;;64.70;6.90;;;;;;;;;;5091033;28;20521;-69
2022/07/22 09:48:40;;;;;;;63.50;6.43;;;;;;;;;;5091503;28;20446;-69
2022/07/22 09:51:07;;;;;;;62.90;5.83;;;;;;;;;;5091578;28;20975;-69
2022/07/22 09:53:35;;;;;;;65.20;6.93;;;;;;;;;;5091329;28;20513;-69
2022/07/22 09:56:05;;;;;;;61.07;6.37;;;;;;;;;;5091545;28;20987;-69
2022/07/22 09:58:32;;;;;;;62.47;6.10;;;;;;;;;;5090752;28;20462;-69
2022/07/22 10:01:00;;;;;;;63.13;6.53;;;;;;;;;;5091145;28;20473;-69
2022/07/22 10:03:28;;;;;;;61.10;5.83;;;;;;;;;;5089790;28;20520;-69
2022/07/22 10:05:56;;;;;;;61.20;5.47;;;;;;;;;;5091034;28;20517;-69
2022/07/22 10:08:23;;;;;;;61.37;5.50;;;;;;;;;;5091467;28;20526;-69
2022/07/22 10:10:50;;;;;;;62.10;6.23;;;;;;;;;;5094579;28;20553;-69
2022/07/22 10:13:20;;;;;;;61.63;5.43;;;;;;;;;;5094587;28;20489;-69
2022/07/22 10:15:47;;;;;;;62.77;5.77;;;;;;;;;;5095617;28;20473;-69
2022/07/22 10:18:15;;;;;;;61.93;5.40;;;;;;;;;;5094938;28;20444;-68
2022/07/22 10:20:42;;;;;;;65.97;5.57;;;;;;;;;;5094694;28;21001;-69
2022/07/22 10:23:11;;;;;;;62.80;5.97;;;;;;;;;;5094846;28;20473;-69
2022/07/22 10:25:51;;;;;;;61.40;5.83;;;;;;;;;;5094631;28;20450;-69
2022/07/22 10:28:23;;;;;;;62.37;5.03;;;;;;;;;;5094638;28;20450;-68
2022/07/22 10:30:50;;;;;;;60.00;5.07;;;;;;;;;;5094139;28;20469;-68
2022/07/22 10:33:19;;;;;;;60.00;4.80;;;;;;;;;;5093765;28;20490;-67
2022/07/22 10:35:57;;;;;;;58.97;4.40;;;;;;;;;;5093649;28;20450;-67
2022/07/22 10:38:24;;;;;;;59.17;4.93;;;;;;;;;;5094357;28;20454;-67
2022/07/22 10:40:53;;;;;;;62.10;4.73;;;;;;;;;;5094249;28;20550;-67
2022/07/22 10:43:21;;;;;;;61.40;4.40;;;;;;;;;;5093998;28;20526;-68
2022/07/22 10:45:50;;;;;;;59.30;5.17;;;;;;;;;;5094047;28;20442;-67
2022/07/22 10:48:19;;;;;;;58.90;4.73;;;;;;;;;;5094126;28;20438;-68
2022/07/22 10:50:49;;;;;;;60.03;5.50;;;;;;;;;;5094211;28;20541;-67
2022/07/22 10:53:17;;;;;;;59.03;5.10;;;;;;;;;;5094199;28;21030;-67
2022/07/22 10:56:02;;;;;;;59.40;5.17;;;;;;;;;;5094343;28;20537;-67
2022/07/22 10:58:41;;;;;;;59.47;4.67;;;;;;;;;;5094033;28;20519;-67
2022/07/22 11:01:11;;;;;;;62.00;5.90;;;;;;;;;;5094062;28;20489;-67
2022/07/22 11:03:39;;;;;;;59.40;5.30;;;;;;;;;;5094307;28;20525;-67
2022/07/22 11:06:16;;;;;;;58.90;4.60;;;;;;;;;;5091948;28;20474;-68
2022/07/22 11:08:44;;;;;;;58.30;4.90;;;;;;;;;;5094130;28;20533;-67
2022/07/22 11:11:11;;;;;;;58.73;5.20;;;;;;;;;;5094140;28;20549;-67
2022/07/22 11:13:40;;;;;;;58.87;4.93;;;;;;;;;;5093537;28;20493;-68
2022/07/22 11:16:19;;;;;;;58.50;4.90;;;;;;;;;;5093734;28;20835;-67
2022/07/22 11:18:47;;;;;;;59.50;5.00;;;;;;;;;;5092975;28;20469;-67
2022/07/22 11:21:15;;;;;;;59.20;4.40;;;;;;;;;;5093149;28;20477;-68
2022/07/22 11:23:43;;;;;;;58.07;4.63;;;;;;;;;;5093306;28;20442;-68
2022/07/22 11:26:10;;;;;;;60.10;5.37;;;;;;;;;;5093833;28;20449;-68
2022/07/22 11:28:40;;;;;;;59.30;4.47;;;;;;;;;;5093634;28;20439;-68
2022/07/22 11:31:07;;;;;;;57.60;4.70;;;;;;;;;;5092933;28;20847;-68
2022/07/22 11:33:36;;;;;;;66.13;4.87;;;;;;;;;;5092965;28;20529;-68
2022/07/22 11:36:04;;;;;;;58.30;4.63;;;;;;;;;;5093152;28;20944;-68
2022/07/22 11:38:40;;;;;;;58.00;4.43;;;;;;;;;;5091172;28;20650;-68
2022/07/22 11:41:08;;;;;;;59.80;4.93;;;;;;;;;;5093183;28;20838;-68
2022/07/22 11:43:39;;;;;;;58.40;5.10;;;;;;;;;;5092771;28;20931;-68
2022/07/22 11:46:06;;;;;;;59.37;5.07;;;;;;;;;;5093215;28;20427;-68
2022/07/22 11:48:34;;;;;;;58.20;4.53;;;;;;;;;;5093278;28;20545;-68
2022/07/22 11:51:03;;;;;;;57.73;4.23;;;;;;;;;;5092787;28;20482;-68
2022/07/22 11:53:30;;;;;;;58.27;5.07;;;;;;;;;;5092895;28;20450;-68
2022/07/22 11:56:01;;;;;;;58.73;4.70;;;;;;;;;;5092701;28;20472;-68
2022/07/22 11:58:41;;;;;;;58.20;4.73;;;;;;;;;;5092796;28;21026;-68
2022/07/22 12:01:08;;;;;;;60.23;5.03;;;;;;;;;;5093196;28;20468;-68
2022/07/22 12:03:36;;;;;;;58.73;4.70;;;;;;;;;;5092577;28;20486;-68
2022/07/22 12:06:06;;;;;;;60.20;5.37;;;;;;;;;;5093022;28;20461;-68
2022/07/22 12:08:33;;;;;;;58.83;5.00;;;;;;;;;;5091312;28;21008;-68
2022/07/22 12:11:01;;;;;;;58.27;5.00;;;;;;;;;;5092890;28;20467;-68
2022/07/22 12:13:31;;;;;;;58.97;5.20;;;;;;;;;;5092938;28;20443;-68
2022/07/22 12:15:59;;;;;;;57.97;4.43;;;;;;;;;;5092661;28;20450;-68
2022/07/22 12:18:27;;;;;;;59.03;5.10;;;;;;;;;;5092976;28;20443;-68
2022/07/22 12:20:55;;;;;;;58.20;4.90;;;;;;;;;;5093225;28;20471;-68
2022/07/22 12:23:24;;;;;;;59.80;5.03;;;;;;;;;;5093005;28;20478;-68
2022/07/22 12:25:52;;;;;;;58.70;4.83;;;;;;;;;;5093548;28;20452;-68
2022/07/22 12:28:19;;;;;;;59.10;5.03;;;;;;;;;;5093293;28;21015;-68
2022/07/22 12:30:46;;;;;;;58.50;5.33;;;;;;;;;;5092708;28;20466;-68
2022/07/22 12:33:17;;;;;;;58.90;4.70;;;;;;;;;;5092943;28;20446;-68
2022/07/22 12:35:45;;;;;;;58.63;4.70;;;;;;;;;;5093212;28;20533;-68
2022/07/22 12:38:12;;;;;;;60.80;5.77;;;;;;;;;;5093291;28;20891;-68
2022/07/22 12:40:41;;;;;;;59.00;5.63;;;;;;;;;;5091404;28;20474;-68
2022/07/22 12:43:09;;;;;;;59.87;4.80;;;;;;;;;;5092554;28;21035;-67
2022/07/22 12:45:37;;;;;;;58.70;4.20;;;;;;;;;;5092342;28;20900;-67
2022/07/22 12:48:08;;;;;;;58.83;5.27;;;;;;;;;;5092386;28;20824;-67
2022/07/22 12:50:36;;;;;;;58.57;4.13;;;;;;;;;;5092376;28;20469;-67
2022/07/22 12:53:04;;;;;;;58.53;4.50;;;;;;;;;;5092503;28;20443;-67
2022/07/22 12:55:32;;;;;;;59.10;4.50;;;;;;;;;;5091569;28;20454;-68
2022/07/22 12:58:00;;;;;;;58.53;4.27;;;;;;;;;;5091954;28;20556;-68
2022/07/22 13:00:28;;;;;;;59.07;5.47;;;;;;;;;;5092174;28;20466;-68
2022/07/22 13:02:57;;;;;;;60.17;5.17;;;;;;;;;;5091845;28;20514;-68
2022/07/22 13:05:25;;;;;;;58.97;4.97;;;;;;;;;;5092501;28;20966;-68
2022/07/22 13:07:53;;;;;;;58.13;4.47;;;;;;;;;;5092040;28;20886;-68
2022/07/22 13:10:20;;;;;;;58.80;5.47;;;;;;;;;;5092298;28;20462;-68
2022/07/22 13:12:47;;;;;;;58.10;4.97;;;;;;;;;;5091196;28;20447;-68
2022/07/22 13:15:16;;;;;;;61.67;4.90;;;;;;;;;;5092117;28;20446;-68
2022/07/22 13:17:43;;;;;;;58.60;4.40;;;;;;;;;;5092370;28;20443;-67
2022/07/22 13:20:12;;;;;;;58.20;4.43;;;;;;;;;;5091642;28;20484;-67
2022/07/22 13:22:39;;;;;;;59.40;5.10;;;;;;;;;;5091638;28;20450;-67
2022/07/22 13:25:07;;;;;;;58.37;4.60;;;;;;;;;;5091956;28;20933;-67
2022/07/22 13:27:34;;;;;;;58.33;5.10;;;;;;;;;;5091834;28;20451;-67
2022/07/22 13:30:01;;;;;;;57.90;4.50;;;;;;;;;;5091731;28;20481;-67
2022/07/22 13:32:29;;;;;;;58.80;4.53;;;;;;;;;;5092387;28;20453;-67
2022/07/22 13:34:57;;;;;;;59.17;4.80;;;;;;;;;;5091776;28;20442;-67
2022/07/22 13:37:24;;;;;;;59.30;4.97;;;;;;;;;;5092115;28;20457;-67
2022/07/22 13:39:51;;;;;;;58.67;4.47;;;;;;;;;;5091808;28;20469;-68
2022/07/22 13:42:19;;;;;;;58.17;4.63;;;;;;;;;;5090700;28;20450;-68
2022/07/22 13:44:46;;;;;;;57.80;4.40;;;;;;;;;;5096399;28;20490;-68
2022/07/22 13:47:13;;;;;;;58.40;4.80;;;;;;;;;;5095848;28;20446;-68
2022/07/22 13:49:44;;;;;;;57.93;4.53;;;;;;;;;;5095531;28;20478;-68
2022/07/22 13:52:11;;;;;;;58.33;4.20;;;;;;;;;;5096108;28;20504;-68
2022/07/22 13:54:38;;;;;;;59.83;4.57;;;;;;;;;;5095813;28;20447;-67
2022/07/22 13:57:06;;;;;;;58.17;4.60;;;;;;;;;;5095156;28;20450;-67
2022/07/22 13:59:33;;;;;;;58.13;4.00;;;;;;;;;;5095698;28;21013;-67
2022/07/22 14:02:01;;;;;;;58.10;4.53;;;;;;;;;;5096084;28;20451;-67
2022/07/22 14:04:28;;;;;;;59.10;4.57;;;;;;;;;;5095851;28;20490;-68
2022/07/22 14:06:57;;;;;;;59.00;4.23;;;;;;;;;;5095546;28;20465;-68
2022/07/22 14:09:24;;;;;;;58.60;4.20;;;;;;;;;;5094679;28;20851;-68
2022/07/22 14:11:51;;;;;;;57.90;4.20;;;;;;;;;;5095838;28;20823;-68
2022/07/22 14:14:18;;;;;;;57.40;4.30;;;;;;;;;;5093923;28;20442;-68
2022/07/22 14:16:45;;;;;;;59.07;4.57;;;;;;;;;;5094548;28;20966;-68
2022/07/22 14:19:14;;;;;;;61.33;4.53;;;;;;;;;;5095127;28;20507;-67
2022/07/22 14:21:43;;;;;;;58.67;4.47;;;;;;;;;;5095095;28;20456;-67
2022/07/22 14:24:11;;;;;;;60.97;3.93;;;;;;;;;;5094694;28;20915;-67
2022/07/22 14:26:39;;;;;;;57.90;4.53;;;;;;;;;;5094979;28;20507;-67
2022/07/22 14:29:07;;;;;;;57.70;3.90;;;;;;;;;;5094700;28;20454;-67
2022/07/22 14:31:35;;;;;;;57.57;4.30;;;;;;;;;;5094433;28;20447;-67
2022/07/22 14:34:02;;;;;;;58.40;4.60;;;;;;;;;;5094763;28;20442;-67